sensor_id;sensor_type;location;lat;lon;timestamp;P1;durP1;ratioP1;P2;durP2;ratioP2
3257;SDS011;1641;51.306;12.384;2022-08-21T00:01:21;123.63;;;61.63;;
3257;SDS011;1641;51.306;12.384;2022-08-21T00:03:49;116.05;;;61.88;;
3257;SDS011;1641;51.306;12.384;2022-08-21T00:06:14;116.75;;;59.55;;
3257;SDS011;1641;51.306;12.384;2022-08-21T00:08:40;128.50;;;65.55;;
3257;SDS011;1641;51.306;12.384;2022-08-21T00:11:06;123.45;;;65.32;;
3257;SDS011;1641;51.306;12.384;2022-08-21T00:13:35;121.25;;;64.25;;
3257;SDS011;1641;51.306;12.384;2022-08-21T00:16:06;133.80;;;69.13;;
3257;SDS011;1641;51.306;12.384;2022-08-21T00:18:32;121.03;;;59.22;;
3257;SDS011;1641;51.306;12.384;2022-08-21T00:20:57;120.68;;;60.55;;
3257;SDS011;1641;51.306;12.384;2022-08-21T00:23:25;125.88;;;59.70;;
3257;SDS011;1641;51.306;12.384;2022-08-21T00:25:51;114.60;;;58.58;;
3257;SDS011;1641;51.306;12.384;2022-08-21T00:28:16;114.40;;;57.40;;
3257;SDS011;1641;51.306;12.384;2022-08-21T00:30:42;113.10;;;55.65;;
3257;SDS011;1641;51.306;12.384;2022-08-21T00:33:08;112.20;;;57.80;;
3257;SDS011;1641;51.306;12.384;2022-08-21T00:35:36;118.03;;;58.20;;
3257;SDS011;1641;51.306;12.384;2022-08-21T00:38:04;103.47;;;51.92;;
3257;SDS011;1641;51.306;12.384;2022-08-21T00:40:33;101.85;;;53.90;;
3257;SDS011;1641;51.306;12.384;2022-08-21T00:43:05;97.22;;;48.88;;
3257;SDS011;1641;51.306;12.384;2022-08-21T00:45:39;93.55;;;48.20;;
3257;SDS011;1641;51.306;12.384;2022-08-21T00:48:05;92.32;;;47.97;;
3257;SDS011;1641;51.306;12.384;2022-08-21T00:50:31;81.90;;;46.47;;
3257;SDS011;1641;51.306;12.384;2022-08-21T00:52:59;90.93;;;47.80;;
3257;SDS011;1641;51.306;12.384;2022-08-21T00:55:26;89.38;;;46.17;;
3257;SDS011;1641;51.306;12.384;2022-08-21T00:57:53;80.28;;;45.58;;
3257;SDS011;1641;51.306;12.384;2022-08-21T01:00:23;78.05;;;44.08;;
3257;SDS011;1641;51.306;12.384;2022-08-21T01:02:53;79.50;;;45.45;;
3257;SDS011;1641;51.306;12.384;2022-08-21T01:05:18;86.35;;;45.13;;
3257;SDS011;1641;51.306;12.384;2022-08-21T01:07:44;73.13;;;42.08;;
3257;SDS011;1641;51.306;12.384;2022-08-21T01:10:10;82.28;;;45.08;;
3257;SDS011;1641;51.306;12.384;2022-08-21T01:12:37;77.57;;;42.75;;
3257;SDS011;1641;51.306;12.384;2022-08-21T01:15:03;76.70;;;42.28;;
3257;SDS011;1641;51.306;12.384;2022-08-21T01:17:29;68.13;;;39.75;;
3257;SDS011;1641;51.306;12.384;2022-08-21T01:19:59;73.05;;;42.58;;
3257;SDS011;1641;51.306;12.384;2022-08-21T01:22:25;70.18;;;38.10;;
3257;SDS011;1641;51.306;12.384;2022-08-21T01:24:51;66.43;;;38.15;;
3257;SDS011;1641;51.306;12.384;2022-08-21T01:27:16;67.45;;;39.78;;
3257;SDS011;1641;51.306;12.384;2022-08-21T01:29:43;58.35;;;35.75;;
3257;SDS011;1641;51.306;12.384;2022-08-21T01:32:14;63.10;;;37.38;;
3257;SDS011;1641;51.306;12.384;2022-08-21T01:34:42;64.05;;;36.70;;
3257;SDS011;1641;51.306;12.384;2022-08-21T01:37:09;55.72;;;33.75;;
3257;SDS011;1641;51.306;12.384;2022-08-21T01:39:35;54.75;;;36.00;;
3257;SDS011;1641;51.306;12.384;2022-08-21T01:42:01;59.80;;;33.92;;
3257;SDS011;1641;51.306;12.384;2022-08-21T01:44:26;52.50;;;33.17;;
3257;SDS011;1641;51.306;12.384;2022-08-21T01:46:52;52.42;;;34.67;;
3257;SDS011;1641;51.306;12.384;2022-08-21T01:49:19;57.33;;;32.85;;
3257;SDS011;1641;51.306;12.384;2022-08-21T01:51:45;49.45;;;31.65;;
3257;SDS011;1641;51.306;12.384;2022-08-21T01:54:11;51.63;;;32.92;;
3257;SDS011;1641;51.306;12.384;2022-08-21T01:56:38;50.90;;;32.63;;
3257;SDS011;1641;51.306;12.384;2022-08-21T01:59:06;46.05;;;30.48;;
3257;SDS011;1641;51.306;12.384;2022-08-21T02:01:31;47.67;;;30.42;;
3257;SDS011;1641;51.306;12.384;2022-08-21T02:03:57;47.85;;;31.08;;
3257;SDS011;1641;51.306;12.384;2022-08-21T02:06:24;45.72;;;29.38;;
3257;SDS011;1641;51.306;12.384;2022-08-21T02:08:49;41.38;;;28.65;;
3257;SDS011;1641;51.306;12.384;2022-08-21T02:11:15;42.67;;;28.73;;
3257;SDS011;1641;51.306;12.384;2022-08-21T02:13:40;37.08;;;24.73;;
3257;SDS011;1641;51.306;12.384;2022-08-21T02:16:06;38.33;;;26.33;;
3257;SDS011;1641;51.306;12.384;2022-08-21T02:18:32;34.00;;;22.77;;
3257;SDS011;1641;51.306;12.384;2022-08-21T02:20:57;32.38;;;23.73;;
3257;SDS011;1641;51.306;12.384;2022-08-21T02:23:23;34.87;;;24.47;;
3257;SDS011;1641;51.306;12.384;2022-08-21T02:25:48;29.08;;;21.55;;
3257;SDS011;1641;51.306;12.384;2022-08-21T02:28:14;28.00;;;20.55;;
3257;SDS011;1641;51.306;12.384;2022-08-21T02:30:41;22.20;;;17.92;;
3257;SDS011;1641;51.306;12.384;2022-08-21T02:33:09;25.58;;;17.63;;
3257;SDS011;1641;51.306;12.384;2022-08-21T02:35:37;26.77;;;18.38;;
3257;SDS011;1641;51.306;12.384;2022-08-21T02:38:06;29.80;;;20.20;;
3257;SDS011;1641;51.306;12.384;2022-08-21T02:40:34;22.75;;;17.70;;
3257;SDS011;1641;51.306;12.384;2022-08-21T02:43:01;21.23;;;17.17;;
3257;SDS011;1641;51.306;12.384;2022-08-21T02:45:28;28.17;;;16.63;;
3257;SDS011;1641;51.306;12.384;2022-08-21T02:47:55;22.23;;;16.13;;
3257;SDS011;1641;51.306;12.384;2022-08-21T02:50:27;18.75;;;14.75;;
3257;SDS011;1641;51.306;12.384;2022-08-21T02:52:57;24.67;;;17.25;;
3257;SDS011;1641;51.306;12.384;2022-08-21T02:55:23;19.65;;;15.63;;
3257;SDS011;1641;51.306;12.384;2022-08-21T02:57:51;20.80;;;15.15;;
3257;SDS011;1641;51.306;12.384;2022-08-21T03:00:18;19.40;;;14.68;;
3257;SDS011;1641;51.306;12.384;2022-08-21T03:02:45;17.73;;;13.93;;
3257;SDS011;1641;51.306;12.384;2022-08-21T03:05:11;17.38;;;11.88;;
3257;SDS011;1641;51.306;12.384;2022-08-21T03:07:37;14.98;;;12.98;;
3257;SDS011;1641;51.306;12.384;2022-08-21T03:10:04;20.25;;;12.63;;
3257;SDS011;1641;51.306;12.384;2022-08-21T03:12:30;16.70;;;12.48;;
3257;SDS011;1641;51.306;12.384;2022-08-21T03:14:55;19.58;;;13.02;;
3257;SDS011;1641;51.306;12.384;2022-08-21T03:17:22;16.55;;;12.32;;
3257;SDS011;1641;51.306;12.384;2022-08-21T03:19:47;20.30;;;12.57;;
3257;SDS011;1641;51.306;12.384;2022-08-21T03:22:12;15.27;;;13.75;;
3257;SDS011;1641;51.306;12.384;2022-08-21T03:24:37;15.60;;;13.02;;
3257;SDS011;1641;51.306;12.384;2022-08-21T03:27:03;19.40;;;13.52;;
3257;SDS011;1641;51.306;12.384;2022-08-21T03:29:28;16.85;;;12.73;;
3257;SDS011;1641;51.306;12.384;2022-08-21T03:32:00;20.15;;;12.98;;
3257;SDS011;1641;51.306;12.384;2022-08-21T03:34:25;20.45;;;11.82;;
3257;SDS011;1641;51.306;12.384;2022-08-21T03:36:50;14.77;;;13.05;;
3257;SDS011;1641;51.306;12.384;2022-08-21T03:39:16;14.82;;;12.07;;
3257;SDS011;1641;51.306;12.384;2022-08-21T03:41:41;15.48;;;11.55;;
3257;SDS011;1641;51.306;12.384;2022-08-21T03:44:07;16.33;;;11.95;;
3257;SDS011;1641;51.306;12.384;2022-08-21T03:46:32;17.35;;;13.27;;
3257;SDS011;1641;51.306;12.384;2022-08-21T03:48:57;15.15;;;10.25;;
3257;SDS011;1641;51.306;12.384;2022-08-21T03:51:23;14.90;;;10.85;;
3257;SDS011;1641;51.306;12.384;2022-08-21T03:53:48;14.10;;;10.07;;
3257;SDS011;1641;51.306;12.384;2022-08-21T03:56:13;13.52;;;9.52;;
3257;SDS011;1641;51.306;12.384;2022-08-21T03:58:40;13.95;;;10.05;;
3257;SDS011;1641;51.306;12.384;2022-08-21T04:01:06;11.43;;;10.23;;
3257;SDS011;1641;51.306;12.384;2022-08-21T04:03:31;10.90;;;8.75;;
3257;SDS011;1641;51.306;12.384;2022-08-21T04:05:58;16.33;;;9.55;;
3257;SDS011;1641;51.306;12.384;2022-08-21T04:08:24;11.45;;;8.85;;
3257;SDS011;1641;51.306;12.384;2022-08-21T04:10:50;14.93;;;9.65;;
3257;SDS011;1641;51.306;12.384;2022-08-21T04:13:17;17.67;;;9.70;;
3257;SDS011;1641;51.306;12.384;2022-08-21T04:15:42;17.25;;;8.07;;
3257;SDS011;1641;51.306;12.384;2022-08-21T04:18:07;12.50;;;9.60;;
3257;SDS011;1641;51.306;12.384;2022-08-21T04:20:33;16.45;;;9.18;;
3257;SDS011;1641;51.306;12.384;2022-08-21T04:22:59;18.40;;;8.90;;
3257;SDS011;1641;51.306;12.384;2022-08-21T04:25:25;12.25;;;7.97;;
3257;SDS011;1641;51.306;12.384;2022-08-21T04:27:50;9.05;;;7.07;;
3257;SDS011;1641;51.306;12.384;2022-08-21T04:30:16;14.73;;;8.05;;
3257;SDS011;1641;51.306;12.384;2022-08-21T04:32:43;11.80;;;8.15;;
3257;SDS011;1641;51.306;12.384;2022-08-21T04:35:10;11.07;;;8.25;;
3257;SDS011;1641;51.306;12.384;2022-08-21T04:37:36;12.32;;;7.05;;
3257;SDS011;1641;51.306;12.384;2022-08-21T04:40:02;8.98;;;7.63;;
3257;SDS011;1641;51.306;12.384;2022-08-21T04:42:28;12.70;;;6.38;;
3257;SDS011;1641;51.306;12.384;2022-08-21T04:44:54;7.78;;;6.70;;
3257;SDS011;1641;51.306;12.384;2022-08-21T04:47:21;11.18;;;7.45;;
3257;SDS011;1641;51.306;12.384;2022-08-21T04:49:46;15.63;;;8.13;;
3257;SDS011;1641;51.306;12.384;2022-08-21T04:52:13;12.25;;;7.95;;
3257;SDS011;1641;51.306;12.384;2022-08-21T04:54:42;11.80;;;8.40;;
3257;SDS011;1641;51.306;12.384;2022-08-21T04:57:09;16.83;;;9.13;;
3257;SDS011;1641;51.306;12.384;2022-08-21T04:59:36;13.55;;;8.32;;
3257;SDS011;1641;51.306;12.384;2022-08-21T05:02:05;14.18;;;8.13;;
3257;SDS011;1641;51.306;12.384;2022-08-21T05:04:33;12.30;;;8.05;;
3257;SDS011;1641;51.306;12.384;2022-08-21T05:07:02;11.35;;;8.20;;
3257;SDS011;1641;51.306;12.384;2022-08-21T05:09:31;10.35;;;8.48;;
3257;SDS011;1641;51.306;12.384;2022-08-21T05:11:57;10.68;;;8.32;;
3257;SDS011;1641;51.306;12.384;2022-08-21T05:14:23;9.80;;;8.10;;
3257;SDS011;1641;51.306;12.384;2022-08-21T05:16:49;17.00;;;8.70;;
3257;SDS011;1641;51.306;12.384;2022-08-21T05:19:14;12.77;;;8.70;;
3257;SDS011;1641;51.306;12.384;2022-08-21T05:21:41;7.78;;;6.82;;
3257;SDS011;1641;51.306;12.384;2022-08-21T05:24:08;9.45;;;7.72;;
3257;SDS011;1641;51.306;12.384;2022-08-21T05:26:35;8.50;;;7.10;;
3257;SDS011;1641;51.306;12.384;2022-08-21T05:29:01;15.45;;;9.43;;
3257;SDS011;1641;51.306;12.384;2022-08-21T05:31:27;13.02;;;7.85;;
3257;SDS011;1641;51.306;12.384;2022-08-21T05:33:52;13.10;;;6.65;;
3257;SDS011;1641;51.306;12.384;2022-08-21T05:36:18;10.15;;;7.20;;
3257;SDS011;1641;51.306;12.384;2022-08-21T05:38:43;10.15;;;6.93;;
3257;SDS011;1641;51.306;12.384;2022-08-21T05:41:09;8.30;;;6.13;;
3257;SDS011;1641;51.306;12.384;2022-08-21T05:43:34;8.30;;;6.13;;
3257;SDS011;1641;51.306;12.384;2022-08-21T05:46:01;9.52;;;6.13;;
3257;SDS011;1641;51.306;12.384;2022-08-21T05:48:31;13.15;;;5.90;;
3257;SDS011;1641;51.306;12.384;2022-08-21T05:50:57;8.73;;;5.47;;
3257;SDS011;1641;51.306;12.384;2022-08-21T05:53:23;9.80;;;5.65;;
3257;SDS011;1641;51.306;12.384;2022-08-21T05:55:49;6.78;;;4.60;;
3257;SDS011;1641;51.306;12.384;2022-08-21T05:58:16;8.25;;;5.15;;
3257;SDS011;1641;51.306;12.384;2022-08-21T06:00:44;8.48;;;5.47;;
3257;SDS011;1641;51.306;12.384;2022-08-21T06:03:13;6.57;;;5.10;;
3257;SDS011;1641;51.306;12.384;2022-08-21T06:05:41;6.95;;;5.38;;
3257;SDS011;1641;51.306;12.384;2022-08-21T06:08:07;10.93;;;6.63;;
3257;SDS011;1641;51.306;12.384;2022-08-21T06:10:32;8.43;;;5.32;;
3257;SDS011;1641;51.306;12.384;2022-08-21T06:12:58;5.25;;;4.75;;
3257;SDS011;1641;51.306;12.384;2022-08-21T06:15:23;9.02;;;4.90;;
3257;SDS011;1641;51.306;12.384;2022-08-21T06:17:48;8.93;;;4.60;;
3257;SDS011;1641;51.306;12.384;2022-08-21T06:20:14;8.05;;;5.50;;
3257;SDS011;1641;51.306;12.384;2022-08-21T06:22:39;9.48;;;4.85;;
3257;SDS011;1641;51.306;12.384;2022-08-21T06:25:04;9.05;;;5.68;;
3257;SDS011;1641;51.306;12.384;2022-08-21T06:27:30;12.55;;;8.88;;
3257;SDS011;1641;51.306;12.384;2022-08-21T06:29:55;31.35;;;16.33;;
3257;SDS011;1641;51.306;12.384;2022-08-21T06:32:22;8.60;;;5.80;;
3257;SDS011;1641;51.306;12.384;2022-08-21T06:34:47;14.40;;;8.48;;
3257;SDS011;1641;51.306;12.384;2022-08-21T06:37:12;11.93;;;5.43;;
3257;SDS011;1641;51.306;12.384;2022-08-21T06:39:38;7.35;;;5.88;;
3257;SDS011;1641;51.306;12.384;2022-08-21T06:42:04;9.88;;;6.95;;
3257;SDS011;1641;51.306;12.384;2022-08-21T06:44:30;20.08;;;11.10;;
3257;SDS011;1641;51.306;12.384;2022-08-21T06:46:55;10.93;;;7.40;;
3257;SDS011;1641;51.306;12.384;2022-08-21T06:49:20;17.67;;;10.52;;
3257;SDS011;1641;51.306;12.384;2022-08-21T06:51:46;18.45;;;7.57;;
3257;SDS011;1641;51.306;12.384;2022-08-21T06:54:11;11.70;;;8.35;;
3257;SDS011;1641;51.306;12.384;2022-08-21T06:56:36;14.23;;;7.95;;
3257;SDS011;1641;51.306;12.384;2022-08-21T06:59:03;9.23;;;4.82;;
3257;SDS011;1641;51.306;12.384;2022-08-21T07:01:29;6.80;;;4.45;;
3257;SDS011;1641;51.306;12.384;2022-08-21T07:03:54;11.25;;;5.03;;
3257;SDS011;1641;51.306;12.384;2022-08-21T07:06:20;12.05;;;8.27;;
3257;SDS011;1641;51.306;12.384;2022-08-21T07:08:45;8.23;;;4.55;;
3257;SDS011;1641;51.306;12.384;2022-08-21T07:11:11;10.10;;;6.03;;
3257;SDS011;1641;51.306;12.384;2022-08-21T07:13:41;5.63;;;4.47;;
3257;SDS011;1641;51.306;12.384;2022-08-21T07:16:07;7.55;;;4.28;;
3257;SDS011;1641;51.306;12.384;2022-08-21T07:18:33;11.90;;;5.05;;
3257;SDS011;1641;51.306;12.384;2022-08-21T07:21:00;7.32;;;4.15;;
3257;SDS011;1641;51.306;12.384;2022-08-21T07:23:30;11.18;;;5.05;;
3257;SDS011;1641;51.306;12.384;2022-08-21T07:25:58;12.25;;;5.97;;
3257;SDS011;1641;51.306;12.384;2022-08-21T07:28:25;5.18;;;3.05;;
3257;SDS011;1641;51.306;12.384;2022-08-21T07:30:51;6.28;;;3.25;;
3257;SDS011;1641;51.306;12.384;2022-08-21T07:33:19;9.85;;;3.10;;
3257;SDS011;1641;51.306;12.384;2022-08-21T07:35:44;9.30;;;3.92;;
3257;SDS011;1641;51.306;12.384;2022-08-21T07:38:09;4.05;;;3.08;;
3257;SDS011;1641;51.306;12.384;2022-08-21T07:40:34;7.00;;;3.67;;
3257;SDS011;1641;51.306;12.384;2022-08-21T07:43:00;7.38;;;4.00;;
3257;SDS011;1641;51.306;12.384;2022-08-21T07:45:25;8.35;;;4.85;;
3257;SDS011;1641;51.306;12.384;2022-08-21T07:47:51;7.72;;;3.42;;
3257;SDS011;1641;51.306;12.384;2022-08-21T07:50:16;11.45;;;3.75;;
3257;SDS011;1641;51.306;12.384;2022-08-21T07:52:42;8.65;;;3.78;;
3257;SDS011;1641;51.306;12.384;2022-08-21T07:55:09;7.40;;;3.22;;
3257;SDS011;1641;51.306;12.384;2022-08-21T07:57:36;5.32;;;3.40;;
3257;SDS011;1641;51.306;12.384;2022-08-21T08:00:03;5.68;;;2.95;;
3257;SDS011;1641;51.306;12.384;2022-08-21T08:02:31;9.07;;;3.53;;
3257;SDS011;1641;51.306;12.384;2022-08-21T08:05:00;7.82;;;4.30;;
3257;SDS011;1641;51.306;12.384;2022-08-21T08:07:26;5.10;;;3.42;;
3257;SDS011;1641;51.306;12.384;2022-08-21T08:09:51;8.68;;;4.25;;
3257;SDS011;1641;51.306;12.384;2022-08-21T08:12:16;8.80;;;4.37;;
3257;SDS011;1641;51.306;12.384;2022-08-21T08:14:42;5.93;;;3.05;;
3257;SDS011;1641;51.306;12.384;2022-08-21T08:17:07;4.25;;;2.90;;
3257;SDS011;1641;51.306;12.384;2022-08-21T08:19:33;7.72;;;3.05;;
3257;SDS011;1641;51.306;12.384;2022-08-21T08:21:58;8.83;;;3.43;;
3257;SDS011;1641;51.306;12.384;2022-08-21T08:24:23;3.72;;;2.55;;
3257;SDS011;1641;51.306;12.384;2022-08-21T08:26:48;6.95;;;2.28;;
3257;SDS011;1641;51.306;12.384;2022-08-21T08:29:14;7.40;;;2.70;;
3257;SDS011;1641;51.306;12.384;2022-08-21T08:31:39;6.43;;;3.10;;
3257;SDS011;1641;51.306;12.384;2022-08-21T08:34:04;8.45;;;3.30;;
3257;SDS011;1641;51.306;12.384;2022-08-21T08:36:34;7.68;;;2.85;;
3257;SDS011;1641;51.306;12.384;2022-08-21T08:39:01;7.47;;;2.58;;
3257;SDS011;1641;51.306;12.384;2022-08-21T08:41:28;5.07;;;2.63;;
3257;SDS011;1641;51.306;12.384;2022-08-21T08:43:57;9.75;;;3.40;;
3257;SDS011;1641;51.306;12.384;2022-08-21T08:51:43;4.60;;;2.03;;
3257;SDS011;1641;51.306;12.384;2022-08-21T08:54:57;6.05;;;1.73;;
3257;SDS011;1641;51.306;12.384;2022-08-21T08:57:10;5.47;;;2.20;;
3257;SDS011;1641;51.306;12.384;2022-08-21T09:02:12;5.07;;;2.17;;
3257;SDS011;1641;51.306;12.384;2022-08-21T09:04:38;7.22;;;2.78;;
3257;SDS011;1641;51.306;12.384;2022-08-21T09:07:07;6.85;;;2.00;;
3257;SDS011;1641;51.306;12.384;2022-08-21T09:09:43;7.20;;;2.15;;
3257;SDS011;1641;51.306;12.384;2022-08-21T09:14:58;6.22;;;2.85;;
3257;SDS011;1641;51.306;12.384;2022-08-21T09:17:59;5.32;;;2.00;;
3257;SDS011;1641;51.306;12.384;2022-08-21T09:20:32;3.88;;;1.75;;
3257;SDS011;1641;51.306;12.384;2022-08-21T09:25:47;3.65;;;1.85;;
3257;SDS011;1641;51.306;12.384;2022-08-21T09:28:20;4.30;;;1.90;;
3257;SDS011;1641;51.306;12.384;2022-08-21T09:30:45;20.80;;;10.10;;
3257;SDS011;1641;51.306;12.384;2022-08-21T09:33:11;9.20;;;4.20;;
3257;SDS011;1641;51.306;12.384;2022-08-21T09:35:47;5.13;;;1.80;;
3257;SDS011;1641;51.306;12.384;2022-08-21T09:38:23;4.57;;;2.13;;
3257;SDS011;1641;51.306;12.384;2022-08-21T09:40:55;5.15;;;2.00;;
3257;SDS011;1641;51.306;12.384;2022-08-21T09:43:23;16.08;;;8.60;;
3257;SDS011;1641;51.306;12.384;2022-08-21T09:46:01;3.83;;;1.95;;
3257;SDS011;1641;51.306;12.384;2022-08-21T09:48:44;15.80;;;9.60;;
3257;SDS011;1641;51.306;12.384;2022-08-21T09:51:12;5.30;;;2.33;;
3257;SDS011;1641;51.306;12.384;2022-08-21T09:53:51;2.95;;;1.80;;
3257;SDS011;1641;51.306;12.384;2022-08-21T09:56:26;6.47;;;1.67;;
3257;SDS011;1641;51.306;12.384;2022-08-21T09:59:13;4.65;;;1.73;;
3257;SDS011;1641;51.306;12.384;2022-08-21T10:01:42;4.25;;;1.48;;
3257;SDS011;1641;51.306;12.384;2022-08-21T10:04:13;5.70;;;2.40;;
3257;SDS011;1641;51.306;12.384;2022-08-21T10:06:38;5.05;;;1.77;;
3257;SDS011;1641;51.306;12.384;2022-08-21T10:09:12;7.75;;;1.90;;
3257;SDS011;1641;51.306;12.384;2022-08-21T10:11:40;3.47;;;1.70;;
3257;SDS011;1641;51.306;12.384;2022-08-21T10:14:16;4.00;;;1.73;;
3257;SDS011;1641;51.306;12.384;2022-08-21T10:17:04;5.35;;;2.10;;
3257;SDS011;1641;51.306;12.384;2022-08-21T10:19:55;4.57;;;1.80;;
3257;SDS011;1641;51.306;12.384;2022-08-21T10:22:32;4.28;;;1.77;;
3257;SDS011;1641;51.306;12.384;2022-08-21T10:25:20;7.00;;;3.03;;
3257;SDS011;1641;51.306;12.384;2022-08-21T10:30:39;6.55;;;2.83;;
3257;SDS011;1641;51.306;12.384;2022-08-21T10:36:13;4.57;;;2.47;;
3257;SDS011;1641;51.306;12.384;2022-08-21T10:39:03;7.47;;;1.92;;
3257;SDS011;1641;51.306;12.384;2022-08-21T10:44:25;9.55;;;1.92;;
3257;SDS011;1641;51.306;12.384;2022-08-21T10:47:14;5.57;;;2.03;;
3257;SDS011;1641;51.306;12.384;2022-08-21T10:49:52;7.13;;;2.13;;
3257;SDS011;1641;51.306;12.384;2022-08-21T10:53:00;6.35;;;1.83;;
3257;SDS011;1641;51.306;12.384;2022-08-21T10:55:34;5.78;;;2.03;;
3257;SDS011;1641;51.306;12.384;2022-08-21T10:58:29;6.35;;;2.17;;
3257;SDS011;1641;51.306;12.384;2022-08-21T11:01:00;5.22;;;1.67;;
3257;SDS011;1641;51.306;12.384;2022-08-21T11:03:37;6.18;;;1.60;;
3257;SDS011;1641;51.306;12.384;2022-08-21T11:06:09;7.03;;;2.00;;
3257;SDS011;1641;51.306;12.384;2022-08-21T11:08:41;6.03;;;2.38;;
3257;SDS011;1641;51.306;12.384;2022-08-21T11:11:19;7.33;;;1.77;;
3257;SDS011;1641;51.306;12.384;2022-08-21T11:13:54;9.00;;;2.38;;
3257;SDS011;1641;51.306;12.384;2022-08-21T11:19:08;6.47;;;2.60;;
3257;SDS011;1641;51.306;12.384;2022-08-21T11:21:56;6.07;;;1.80;;
3257;SDS011;1641;51.306;12.384;2022-08-21T11:24:33;7.10;;;2.00;;
3257;SDS011;1641;51.306;12.384;2022-08-21T11:29:52;6.25;;;1.80;;
3257;SDS011;1641;51.306;12.384;2022-08-21T11:35:03;4.95;;;1.88;;
3257;SDS011;1641;51.306;12.384;2022-08-21T11:45:53;5.07;;;2.13;;
3257;SDS011;1641;51.306;12.384;2022-08-21T11:50:56;6.05;;;2.55;;
3257;SDS011;1641;51.306;12.384;2022-08-21T11:53:32;3.90;;;1.73;;
3257;SDS011;1641;51.306;12.384;2022-08-21T11:56:45;5.38;;;2.10;;
3257;SDS011;1641;51.306;12.384;2022-08-21T11:59:02;4.10;;;1.65;;
3257;SDS011;1641;51.306;12.384;2022-08-21T12:01:39;7.25;;;2.40;;
3257;SDS011;1641;51.306;12.384;2022-08-21T12:07:14;5.05;;;1.85;;
3257;SDS011;1641;51.306;12.384;2022-08-21T12:09:51;3.50;;;2.20;;
3257;SDS011;1641;51.306;12.384;2022-08-21T12:12:29;6.80;;;2.55;;
3257;SDS011;1641;51.306;12.384;2022-08-21T12:25:42;5.00;;;2.05;;
3257;SDS011;1641;51.306;12.384;2022-08-21T12:28:09;4.95;;;2.15;;
3257;SDS011;1641;51.306;12.384;2022-08-21T12:30:39;25.88;;;12.10;;
3257;SDS011;1641;51.306;12.384;2022-08-21T12:33:26;10.25;;;4.75;;
3257;SDS011;1641;51.306;12.384;2022-08-21T12:38:51;7.97;;;1.85;;
3257;SDS011;1641;51.306;12.384;2022-08-21T12:41:31;4.80;;;1.95;;
3257;SDS011;1641;51.306;12.384;2022-08-21T12:44:04;5.30;;;1.50;;
3257;SDS011;1641;51.306;12.384;2022-08-21T12:46:39;7.95;;;2.63;;
3257;SDS011;1641;51.306;12.384;2022-08-21T12:49:14;2.92;;;1.70;;
3257;SDS011;1641;51.306;12.384;2022-08-21T12:52:21;5.25;;;2.13;;
3257;SDS011;1641;51.306;12.384;2022-08-21T12:54:46;10.60;;;4.20;;
3257;SDS011;1641;51.306;12.384;2022-08-21T12:57:22;9.60;;;3.45;;
3257;SDS011;1641;51.306;12.384;2022-08-21T13:02:21;5.80;;;2.17;;
3257;SDS011;1641;51.306;12.384;2022-08-21T13:05:05;22.35;;;6.07;;
3257;SDS011;1641;51.306;12.384;2022-08-21T13:07:33;4.78;;;2.60;;
3257;SDS011;1641;51.306;12.384;2022-08-21T13:10:12;3.60;;;1.77;;
3257;SDS011;1641;51.306;12.384;2022-08-21T13:12:43;6.65;;;1.65;;
3257;SDS011;1641;51.306;12.384;2022-08-21T13:15:12;5.78;;;2.65;;
3257;SDS011;1641;51.306;12.384;2022-08-21T13:17:40;4.30;;;2.17;;
3257;SDS011;1641;51.306;12.384;2022-08-21T13:20:20;6.35;;;2.75;;
3257;SDS011;1641;51.306;12.384;2022-08-21T13:22:48;7.20;;;2.35;;
3257;SDS011;1641;51.306;12.384;2022-08-21T13:25:14;11.68;;;3.85;;
3257;SDS011;1641;51.306;12.384;2022-08-21T13:27:42;5.30;;;1.83;;
3257;SDS011;1641;51.306;12.384;2022-08-21T13:30:19;5.73;;;1.77;;
3257;SDS011;1641;51.306;12.384;2022-08-21T13:32:47;6.97;;;2.10;;
3257;SDS011;1641;51.306;12.384;2022-08-21T13:37:43;6.50;;;2.95;;
3257;SDS011;1641;51.306;12.384;2022-08-21T13:40:12;10.73;;;2.90;;
3257;SDS011;1641;51.306;12.384;2022-08-21T13:42:43;9.88;;;3.28;;
3257;SDS011;1641;51.306;12.384;2022-08-21T13:47:56;8.05;;;2.63;;
3257;SDS011;1641;51.306;12.384;2022-08-21T13:50:24;10.57;;;4.75;;
3257;SDS011;1641;51.306;12.384;2022-08-21T13:53:00;10.10;;;2.28;;
3257;SDS011;1641;51.306;12.384;2022-08-21T13:55:42;5.15;;;2.35;;
3257;SDS011;1641;51.306;12.384;2022-08-21T13:58:08;3.90;;;1.92;;
3257;SDS011;1641;51.306;12.384;2022-08-21T14:00:47;6.68;;;2.92;;
3257;SDS011;1641;51.306;12.384;2022-08-21T14:06:12;4.22;;;1.88;;
3257;SDS011;1641;51.306;12.384;2022-08-21T14:08:48;5.53;;;1.88;;
3257;SDS011;1641;51.306;12.384;2022-08-21T14:11:16;5.00;;;1.75;;
3257;SDS011;1641;51.306;12.384;2022-08-21T14:13:48;4.97;;;1.90;;
3257;SDS011;1641;51.306;12.384;2022-08-21T14:16:22;14.57;;;7.03;;
3257;SDS011;1641;51.306;12.384;2022-08-21T14:18:52;4.10;;;2.13;;
3257;SDS011;1641;51.306;12.384;2022-08-21T14:24:06;12.30;;;7.05;;
3257;SDS011;1641;51.306;12.384;2022-08-21T14:26:35;7.35;;;3.70;;
3257;SDS011;1641;51.306;12.384;2022-08-21T14:29:02;9.20;;;2.97;;
3257;SDS011;1641;51.306;12.384;2022-08-21T14:31:36;16.90;;;6.80;;
3257;SDS011;1641;51.306;12.384;2022-08-21T14:34:01;11.02;;;6.30;;
3257;SDS011;1641;51.306;12.384;2022-08-21T14:36:27;11.25;;;5.32;;
3257;SDS011;1641;51.306;12.384;2022-08-21T14:38:52;5.25;;;1.90;;
3257;SDS011;1641;51.306;12.384;2022-08-21T14:41:19;5.32;;;2.13;;
3257;SDS011;1641;51.306;12.384;2022-08-21T14:43:48;3.67;;;2.13;;
3257;SDS011;1641;51.306;12.384;2022-08-21T14:46:18;4.70;;;1.80;;
3257;SDS011;1641;51.306;12.384;2022-08-21T14:48:49;3.95;;;1.63;;
3257;SDS011;1641;51.306;12.384;2022-08-21T14:51:16;6.75;;;2.28;;
3257;SDS011;1641;51.306;12.384;2022-08-21T14:53:44;6.53;;;2.05;;
3257;SDS011;1641;51.306;12.384;2022-08-21T14:56:10;5.40;;;1.98;;
3257;SDS011;1641;51.306;12.384;2022-08-21T14:58:37;4.75;;;2.25;;
3257;SDS011;1641;51.306;12.384;2022-08-21T15:01:04;5.72;;;2.20;;
3257;SDS011;1641;51.306;12.384;2022-08-21T15:03:35;7.93;;;2.83;;
3257;SDS011;1641;51.306;12.384;2022-08-21T15:06:01;6.57;;;2.05;;
3257;SDS011;1641;51.306;12.384;2022-08-21T15:08:27;7.93;;;2.20;;
3257;SDS011;1641;51.306;12.384;2022-08-21T15:10:53;9.80;;;5.43;;
3257;SDS011;1641;51.306;12.384;2022-08-21T15:13:19;5.60;;;2.05;;
3257;SDS011;1641;51.306;12.384;2022-08-21T15:15:45;4.75;;;1.98;;
3257;SDS011;1641;51.306;12.384;2022-08-21T15:18:13;7.53;;;2.25;;
3257;SDS011;1641;51.306;12.384;2022-08-21T15:20:38;5.28;;;2.78;;
3257;SDS011;1641;51.306;12.384;2022-08-21T15:23:04;3.22;;;1.70;;
3257;SDS011;1641;51.306;12.384;2022-08-21T15:25:30;4.75;;;2.38;;
3257;SDS011;1641;51.306;12.384;2022-08-21T15:27:59;13.30;;;6.40;;
3257;SDS011;1641;51.306;12.384;2022-08-21T15:30:25;8.13;;;2.25;;
3257;SDS011;1641;51.306;12.384;2022-08-21T15:32:51;8.45;;;2.38;;
3257;SDS011;1641;51.306;12.384;2022-08-21T15:35:16;6.80;;;2.75;;
3257;SDS011;1641;51.306;12.384;2022-08-21T15:37:42;8.57;;;4.75;;
3257;SDS011;1641;51.306;12.384;2022-08-21T15:40:07;5.22;;;2.60;;
3257;SDS011;1641;51.306;12.384;2022-08-21T15:42:33;6.03;;;2.13;;
3257;SDS011;1641;51.306;12.384;2022-08-21T15:44:59;6.38;;;3.15;;
3257;SDS011;1641;51.306;12.384;2022-08-21T15:47:29;4.97;;;2.97;;
3257;SDS011;1641;51.306;12.384;2022-08-21T15:50:02;5.63;;;3.13;;
3257;SDS011;1641;51.306;12.384;2022-08-21T15:52:33;4.53;;;2.00;;
3257;SDS011;1641;51.306;12.384;2022-08-21T15:54:59;6.85;;;3.92;;
3257;SDS011;1641;51.306;12.384;2022-08-21T15:57:25;3.70;;;1.95;;
3257;SDS011;1641;51.306;12.384;2022-08-21T15:59:52;5.20;;;3.13;;
3257;SDS011;1641;51.306;12.384;2022-08-21T16:02:24;2.47;;;1.58;;
3257;SDS011;1641;51.306;12.384;2022-08-21T16:04:52;3.55;;;1.77;;
3257;SDS011;1641;51.306;12.384;2022-08-21T16:07:18;4.22;;;1.77;;
3257;SDS011;1641;51.306;12.384;2022-08-21T16:09:43;4.53;;;2.08;;
3257;SDS011;1641;51.306;12.384;2022-08-21T16:12:09;5.72;;;1.90;;